sensor_id;sensor_type;location;lat;lon;timestamp;temperature;humidity
1175;DHT22;576;48.418;10.074;2024-02-16T00:00:03;23.30;56.20
1175;DHT22;576;48.418;10.074;2024-02-16T00:02:37;23.30;56.20
1175;DHT22;576;48.418;10.074;2024-02-16T00:05:06;23.30;56.20
1175;DHT22;576;48.418;10.074;2024-02-16T00:07:37;23.30;56.20
1175;DHT22;576;48.418;10.074;2024-02-16T00:10:08;23.30;56.10
1175;DHT22;576;48.418;10.074;2024-02-16T00:12:36;23.30;56.10
1175;DHT22;576;48.418;10.074;2024-02-16T00:15:07;23.30;56.10
1175;DHT22;576;48.418;10.074;2024-02-16T00:17:37;23.30;56.10
1175;DHT22;576;48.418;10.074;2024-02-16T00:20:07;23.30;56.10
1175;DHT22;576;48.418;10.074;2024-02-16T00:22:35;23.30;56.20
1175;DHT22;576;48.418;10.074;2024-02-16T00:25:04;23.30;56.20
1175;DHT22;576;48.418;10.074;2024-02-16T00:27:34;23.30;56.20
1175;DHT22;576;48.418;10.074;2024-02-16T00:30:02;23.30;56.10
1175;DHT22;576;48.418;10.074;2024-02-16T00:32:31;23.20;56.10
1175;DHT22;576;48.418;10.074;2024-02-16T00:34:59;23.30;56.10
1175;DHT22;576;48.418;10.074;2024-02-16T00:37:27;23.30;56.10
1175;DHT22;576;48.418;10.074;2024-02-16T00:39:55;23.30;56.10
1175;DHT22;576;48.418;10.074;2024-02-16T00:42:23;23.20;56.10
1175;DHT22;576;48.418;10.074;2024-02-16T00:44:56;23.20;56.10
1175;DHT22;576;48.418;10.074;2024-02-16T00:47:24;23.20;56.10
1175;DHT22;576;48.418;10.074;2024-02-16T00:49:54;23.20;56.10
1175;DHT22;576;48.418;10.074;2024-02-16T00:52:22;23.20;56.10
1175;DHT22;576;48.418;10.074;2024-02-16T00:54:51;23.20;56.00
1175;DHT22;576;48.418;10.074;2024-02-16T00:57:19;23.20;56.00
1175;DHT22;576;48.418;10.074;2024-02-16T00:59:47;23.20;56.00
1175;DHT22;576;48.418;10.074;2024-02-16T01:02:17;23.20;56.00
1175;DHT22;576;48.418;10.074;2024-02-16T01:04:46;23.20;56.00
1175;DHT22;576;48.418;10.074;2024-02-16T01:07:14;23.20;56.00
1175;DHT22;576;48.418;10.074;2024-02-16T01:09:43;23.20;56.00
1175;DHT22;576;48.418;10.074;2024-02-16T01:12:11;23.20;56.00
1175;DHT22;576;48.418;10.074;2024-02-16T01:14:40;23.20;56.00
1175;DHT22;576;48.418;10.074;2024-02-16T01:17:08;23.20;55.90
1175;DHT22;576;48.418;10.074;2024-02-16T01:19:38;23.20;55.90
1175;DHT22;576;48.418;10.074;2024-02-16T01:22:05;23.20;55.90
1175;DHT22;576;48.418;10.074;2024-02-16T01:24:33;23.20;55.90
1175;DHT22;576;48.418;10.074;2024-02-16T01:27:02;23.20;55.90
1175;DHT22;576;48.418;10.074;2024-02-16T01:29:30;23.20;55.90
1175;DHT22;576;48.418;10.074;2024-02-16T01:31:59;23.20;55.90
1175;DHT22;576;48.418;10.074;2024-02-16T01:34:27;23.20;55.90
1175;DHT22;576;48.418;10.074;2024-02-16T01:36:58;23.10;55.90
1175;DHT22;576;48.418;10.074;2024-02-16T01:39:26;23.10;55.90
1175;DHT22;576;48.418;10.074;2024-02-16T01:41:55;23.10;55.90
1175;DHT22;576;48.418;10.074;2024-02-16T01:44:23;23.10;55.90
1175;DHT22;576;48.418;10.074;2024-02-16T01:46:51;23.10;55.90
1175;DHT22;576;48.418;10.074;2024-02-16T01:49:20;23.10;55.90
1175;DHT22;576;48.418;10.074;2024-02-16T01:51:48;23.10;55.90
1175;DHT22;576;48.418;10.074;2024-02-16T01:54:18;23.10;55.80
1175;DHT22;576;48.418;10.074;2024-02-16T01:56:47;23.10;55.90
1175;DHT22;576;48.418;10.074;2024-02-16T01:59:17;23.10;55.80
1175;DHT22;576;48.418;10.074;2024-02-16T02:01:46;23.10;55.80
1175;DHT22;576;48.418;10.074;2024-02-16T02:04:14;23.10;55.80
1175;DHT22;576;48.418;10.074;2024-02-16T02:06:43;23.10;55.80
1175;DHT22;576;48.418;10.074;2024-02-16T02:09:11;23.10;55.80
1175;DHT22;576;48.418;10.074;2024-02-16T02:11:41;23.10;55.80
1175;DHT22;576;48.418;10.074;2024-02-16T02:14:10;23.00;55.80
1175;DHT22;576;48.418;10.074;2024-02-16T02:16:38;23.00;55.80
1175;DHT22;576;48.418;10.074;2024-02-16T02:19:21;23.00;55.80
1175;DHT22;576;48.418;10.074;2024-02-16T02:21:49;23.00;55.90
1175;DHT22;576;48.418;10.074;2024-02-16T02:24:20;23.00;55.90
1175;DHT22;576;48.418;10.074;2024-02-16T02:26:48;23.00;55.80
1175;DHT22;576;48.418;10.074;2024-02-16T02:29:16;23.00;55.90
1175;DHT22;576;48.418;10.074;2024-02-16T02:31:44;23.00;55.90
1175;DHT22;576;48.418;10.074;2024-02-16T02:34:13;23.00;55.80
1175;DHT22;576;48.418;10.074;2024-02-16T02:36:42;23.00;55.90
1175;DHT22;576;48.418;10.074;2024-02-16T02:39:11;23.00;55.80
1175;DHT22;576;48.418;10.074;2024-02-16T02:41:41;22.90;55.80
1175;DHT22;576;48.418;10.074;2024-02-16T02:44:11;22.90;55.80
1175;DHT22;576;48.418;10.074;2024-02-16T02:46:39;22.90;55.80
1175;DHT22;576;48.418;10.074;2024-02-16T02:49:08;22.90;55.80
1175;DHT22;576;48.418;10.074;2024-02-16T02:51:36;22.90;55.80
1175;DHT22;576;48.418;10.074;2024-02-16T02:54:05;22.90;55.80
1175;DHT22;576;48.418;10.074;2024-02-16T02:56:33;22.90;55.80
1175;DHT22;576;48.418;10.074;2024-02-16T02:59:03;22.90;55.80
1175;DHT22;576;48.418;10.074;2024-02-16T03:01:33;22.90;55.80
1175;DHT22;576;48.418;10.074;2024-02-16T03:04:01;22.90;55.80
1175;DHT22;576;48.418;10.074;2024-02-16T03:06:30;22.90;55.80
1175;DHT22;576;48.418;10.074;2024-02-16T03:08:58;22.90;55.80
1175;DHT22;576;48.418;10.074;2024-02-16T03:11:27;22.80;55.80
1175;DHT22;576;48.418;10.074;2024-02-16T03:13:55;22.90;55.80
1175;DHT22;576;48.418;10.074;2024-02-16T03:16:25;22.80;55.80
1175;DHT22;576;48.418;10.074;2024-02-16T03:18:53;22.80;55.80
1175;DHT22;576;48.418;10.074;2024-02-16T03:21:22;22.80;55.80
1175;DHT22;576;48.418;10.074;2024-02-16T03:23:51;22.80;55.80
1175;DHT22;576;48.418;10.074;2024-02-16T03:26:20;22.80;55.80
1175;DHT22;576;48.418;10.074;2024-02-16T03:28:48;22.80;55.80
1175;DHT22;576;48.418;10.074;2024-02-16T03:31:17;22.80;55.80
1175;DHT22;576;48.418;10.074;2024-02-16T03:33:47;22.80;55.80
1175;DHT22;576;48.418;10.074;2024-02-16T03:36:16;22.80;55.80
1175;DHT22;576;48.418;10.074;2024-02-16T03:38:45;22.80;55.80
1175;DHT22;576;48.418;10.074;2024-02-16T03:41:14;22.80;55.80
1175;DHT22;576;48.418;10.074;2024-02-16T03:43:43;22.70;55.80
1175;DHT22;576;48.418;10.074;2024-02-16T03:46:11;22.70;55.80
1175;DHT22;576;48.418;10.074;2024-02-16T03:48:40;22.70;55.80
1175;DHT22;576;48.418;10.074;2024-02-16T03:51:09;22.70;55.80
1175;DHT22;576;48.418;10.074;2024-02-16T03:53:38;22.70;55.80
1175;DHT22;576;48.418;10.074;2024-02-16T03:56:06;22.70;55.80
1175;DHT22;576;48.418;10.074;2024-02-16T03:58:36;22.70;55.80
1175;DHT22;576;48.418;10.074;2024-02-16T04:01:04;22.70;55.80
1175;DHT22;576;48.418;10.074;2024-02-16T04:03:34;22.70;55.80
1175;DHT22;576;48.418;10.074;2024-02-16T04:06:02;22.70;55.80
1175;DHT22;576;48.418;10.074;2024-02-16T04:08:33;22.70;55.80
1175;DHT22;576;48.418;10.074;2024-02-16T04:11:01;22.70;55.80
1175;DHT22;576;48.418;10.074;2024-02-16T04:13:30;22.70;55.80
1175;DHT22;576;48.418;10.074;2024-02-16T04:15:59;22.70;55.80
1175;DHT22;576;48.418;10.074;2024-02-16T04:18:28;22.60;55.80
1175;DHT22;576;48.418;10.074;2024-02-16T04:20:56;22.60;55.80
1175;DHT22;576;48.418;10.074;2024-02-16T04:23:24;22.60;55.80
1175;DHT22;576;48.418;10.074;2024-02-16T04:25:54;22.60;55.80
1175;DHT22;576;48.418;10.074;2024-02-16T04:28:22;22.60;55.80
1175;DHT22;576;48.418;10.074;2024-02-16T04:30:51;22.60;55.90
1175;DHT22;576;48.418;10.074;2024-02-16T04:33:19;22.60;55.90
1175;DHT22;576;48.418;10.074;2024-02-16T04:35:48;22.60;55.90
1175;DHT22;576;48.418;10.074;2024-02-16T04:38:17;22.60;55.90
1175;DHT22;576;48.418;10.074;2024-02-16T04:40:46;22.60;55.90
1175;DHT22;576;48.418;10.074;2024-02-16T04:43:16;22.60;55.90
1175;DHT22;576;48.418;10.074;2024-02-16T04:45:44;22.50;55.90
1175;DHT22;576;48.418;10.074;2024-02-16T04:48:13;22.50;55.90
1175;DHT22;576;48.418;10.074;2024-02-16T04:50:41;22.50;55.90
1175;DHT22;576;48.418;10.074;2024-02-16T04:53:10;22.50;56.00
1175;DHT22;576;48.418;10.074;2024-02-16T04:55:38;22.50;56.00
1175;DHT22;576;48.418;10.074;2024-02-16T04:58:06;22.50;56.00
1175;DHT22;576;48.418;10.074;2024-02-16T05:00:38;22.60;56.00
1175;DHT22;576;48.418;10.074;2024-02-16T05:03:07;22.60;56.00
1175;DHT22;576;48.418;10.074;2024-02-16T05:05:35;22.60;56.00
1175;DHT22;576;48.418;10.074;2024-02-16T05:08:04;22.60;55.90
1175;DHT22;576;48.418;10.074;2024-02-16T05:10:33;22.60;55.90
1175;DHT22;576;48.418;10.074;2024-02-16T05:13:01;22.60;55.90
1175;DHT22;576;48.418;10.074;2024-02-16T05:15:29;22.70;55.90
1175;DHT22;576;48.418;10.074;2024-02-16T05:18:00;22.70;55.90
1175;DHT22;576;48.418;10.074;2024-02-16T05:20:29;22.70;55.90
1175;DHT22;576;48.418;10.074;2024-02-16T05:22:57;22.70;55.90
1175;DHT22;576;48.418;10.074;2024-02-16T05:25:25;22.70;55.80
1175;DHT22;576;48.418;10.074;2024-02-16T05:27:54;22.80;55.80
1175;DHT22;576;48.418;10.074;2024-02-16T05:30:22;22.80;55.80
1175;DHT22;576;48.418;10.074;2024-02-16T05:32:50;22.80;55.80
1175;DHT22;576;48.418;10.074;2024-02-16T05:35:21;22.80;55.80
1175;DHT22;576;48.418;10.074;2024-02-16T05:37:50;22.90;55.70
1175;DHT22;576;48.418;10.074;2024-02-16T05:40:19;22.90;55.60
1175;DHT22;576;48.418;10.074;2024-02-16T05:42:51;22.90;55.50
1175;DHT22;576;48.418;10.074;2024-02-16T05:45:20;22.90;55.50
1175;DHT22;576;48.418;10.074;2024-02-16T05:47:49;23.00;55.40
1175;DHT22;576;48.418;10.074;2024-02-16T05:50:21;23.00;55.40
1175;DHT22;576;48.418;10.074;2024-02-16T05:52:50;23.00;55.30
1175;DHT22;576;48.418;10.074;2024-02-16T05:55:19;23.00;55.30
1175;DHT22;576;48.418;10.074;2024-02-16T05:57:47;22.90;55.30
1175;DHT22;576;48.418;10.074;2024-02-16T06:00:16;22.90;55.30
1175;DHT22;576;48.418;10.074;2024-02-16T06:02:48;22.90;55.30
1175;DHT22;576;48.418;10.074;2024-02-16T06:05:17;22.90;55.30
1175;DHT22;576;48.418;10.074;2024-02-16T06:07:48;22.90;55.30
1175;DHT22;576;48.418;10.074;2024-02-16T06:10:16;22.90;55.30
1175;DHT22;576;48.418;10.074;2024-02-16T06:13:24;22.90;55.30
1175;DHT22;576;48.418;10.074;2024-02-16T06:15:53;22.80;55.30
1175;DHT22;576;48.418;10.074;2024-02-16T06:18:21;22.80;55.40
1175;DHT22;576;48.418;10.074;2024-02-16T06:20:49;22.80;55.40
1175;DHT22;576;48.418;10.074;2024-02-16T06:23:19;22.80;55.40
1175;DHT22;576;48.418;10.074;2024-02-16T06:25:47;22.80;55.40
1175;DHT22;576;48.418;10.074;2024-02-16T06:28:15;22.80;55.40
1175;DHT22;576;48.418;10.074;2024-02-16T06:30:44;22.70;55.50
1175;DHT22;576;48.418;10.074;2024-02-16T06:33:12;22.70;55.50
1175;DHT22;576;48.418;10.074;2024-02-16T06:35:40;22.70;55.50
1175;DHT22;576;48.418;10.074;2024-02-16T06:38:08;22.70;55.50
1175;DHT22;576;48.418;10.074;2024-02-16T06:40:38;22.70;55.50
1175;DHT22;576;48.418;10.074;2024-02-16T06:43:06;22.70;55.50
1175;DHT22;576;48.418;10.074;2024-02-16T06:45:35;22.70;55.50
1175;DHT22;576;48.418;10.074;2024-02-16T06:48:04;22.70;55.50
1175;DHT22;576;48.418;10.074;2024-02-16T06:50:33;22.70;55.50
1175;DHT22;576;48.418;10.074;2024-02-16T06:53:01;22.70;55.50
1175;DHT22;576;48.418;10.074;2024-02-16T06:55:30;22.70;55.50
1175;DHT22;576;48.418;10.074;2024-02-16T06:57:59;22.80;55.50
1175;DHT22;576;48.418;10.074;2024-02-16T07:00:27;22.80;55.60
1175;DHT22;576;48.418;10.074;2024-02-16T07:02:56;22.80;55.60
1175;DHT22;576;48.418;10.074;2024-02-16T07:05:24;22.80;55.70
1175;DHT22;576;48.418;10.074;2024-02-16T07:07:54;22.80;55.80
1175;DHT22;576;48.418;10.074;2024-02-16T07:10:23;22.80;55.80
1175;DHT22;576;48.418;10.074;2024-02-16T07:12:51;22.80;55.80
1175;DHT22;576;48.418;10.074;2024-02-16T07:15:20;22.80;55.80
1175;DHT22;576;48.418;10.074;2024-02-16T07:17:49;22.80;55.90
1175;DHT22;576;48.418;10.074;2024-02-16T07:20:17;22.90;56.00
1175;DHT22;576;48.418;10.074;2024-02-16T07:22:45;22.90;56.00
1175;DHT22;576;48.418;10.074;2024-02-16T07:25:14;22.90;56.10
1175;DHT22;576;48.418;10.074;2024-02-16T07:27:42;22.90;56.00
1175;DHT22;576;48.418;10.074;2024-02-16T07:30:11;22.80;55.80
1175;DHT22;576;48.418;10.074;2024-02-16T07:32:50;22.80;55.70
1175;DHT22;576;48.418;10.074;2024-02-16T07:35:19;22.80;55.90
1175;DHT22;576;48.418;10.074;2024-02-16T07:37:51;22.70;55.80
1175;DHT22;576;48.418;10.074;2024-02-16T07:40:21;22.70;55.60
1175;DHT22;576;48.418;10.074;2024-02-16T07:42:49;22.70;55.50
1175;DHT22;576;48.418;10.074;2024-02-16T07:45:17;22.60;55.40
1175;DHT22;576;48.418;10.074;2024-02-16T07:47:46;22.60;55.40
1175;DHT22;576;48.418;10.074;2024-02-16T07:50:20;22.60;55.50
1175;DHT22;576;48.418;10.074;2024-02-16T07:52:49;22.60;55.50
1175;DHT22;576;48.418;10.074;2024-02-16T07:55:17;22.60;55.50
1175;DHT22;576;48.418;10.074;2024-02-16T07:57:47;22.60;55.50
1175;DHT22;576;48.418;10.074;2024-02-16T08:00:15;22.60;55.40
1175;DHT22;576;48.418;10.074;2024-02-16T08:02:44;22.60;55.40
1175;DHT22;576;48.418;10.074;2024-02-16T08:05:13;22.60;55.50
1175;DHT22;576;48.418;10.074;2024-02-16T08:07:42;22.60;55.60
1175;DHT22;576;48.418;10.074;2024-02-16T08:10:11;22.60;55.40
1175;DHT22;576;48.418;10.074;2024-02-16T08:12:39;22.70;55.40
1175;DHT22;576;48.418;10.074;2024-02-16T08:15:09;22.70;55.40
1175;DHT22;576;48.418;10.074;2024-02-16T08:17:37;22.70;55.30
1175;DHT22;576;48.418;10.074;2024-02-16T08:20:07;22.80;55.30
1175;DHT22;576;48.418;10.074;2024-02-16T08:22:38;22.80;55.30
1175;DHT22;576;48.418;10.074;2024-02-16T08:25:08;22.80;55.30
1175;DHT22;576;48.418;10.074;2024-02-16T08:27:37;22.80;55.20
1175;DHT22;576;48.418;10.074;2024-02-16T08:30:07;22.80;55.20
1175;DHT22;576;48.418;10.074;2024-02-16T08:32:37;22.80;55.30
1175;DHT22;576;48.418;10.074;2024-02-16T08:35:06;22.80;55.20
1175;DHT22;576;48.418;10.074;2024-02-16T08:37:35;22.80;55.20
1175;DHT22;576;48.418;10.074;2024-02-16T08:40:05;22.80;55.20
1175;DHT22;576;48.418;10.074;2024-02-16T08:42:35;22.80;55.20
1175;DHT22;576;48.418;10.074;2024-02-16T08:45:04;22.80;55.30
1175;DHT22;576;48.418;10.074;2024-02-16T08:47:32;22.80;55.50
1175;DHT22;576;48.418;10.074;2024-02-16T08:50:01;22.90;55.50
1175;DHT22;576;48.418;10.074;2024-02-16T08:52:29;22.90;55.60
1175;DHT22;576;48.418;10.074;2024-02-16T08:54:59;22.90;55.70
1175;DHT22;576;48.418;10.074;2024-02-16T08:57:27;22.90;55.70
1175;DHT22;576;48.418;10.074;2024-02-16T08:59:57;23.00;55.80
1175;DHT22;576;48.418;10.074;2024-02-16T09:02:25;23.00;55.80
1175;DHT22;576;48.418;10.074;2024-02-16T09:04:54;23.00;55.80
1175;DHT22;576;48.418;10.074;2024-02-16T09:07:23;23.10;55.80
1175;DHT22;576;48.418;10.074;2024-02-16T09:09:54;23.10;55.80
1175;DHT22;576;48.418;10.074;2024-02-16T09:12:23;23.10;55.90
1175;DHT22;576;48.418;10.074;2024-02-16T09:14:51;23.20;55.80
1175;DHT22;576;48.418;10.074;2024-02-16T09:17:21;23.20;55.80
1175;DHT22;576;48.418;10.074;2024-02-16T09:19:49;23.20;55.90
1175;DHT22;576;48.418;10.074;2024-02-16T09:22:18;23.20;55.90
1175;DHT22;576;48.418;10.074;2024-02-16T09:24:46;23.30;55.90
1175;DHT22;576;48.418;10.074;2024-02-16T09:27:14;23.30;55.90
1175;DHT22;576;48.418;10.074;2024-02-16T09:29:42;23.30;55.80
1175;DHT22;576;48.418;10.074;2024-02-16T09:32:11;23.30;55.70
1175;DHT22;576;48.418;10.074;2024-02-16T09:34:43;23.40;55.70
1175;DHT22;576;48.418;10.074;2024-02-16T09:37:11;23.40;55.60
1175;DHT22;576;48.418;10.074;2024-02-16T09:39:39;23.50;55.60
1175;DHT22;576;48.418;10.074;2024-02-16T09:42:08;23.50;55.50
1175;DHT22;576;48.418;10.074;2024-02-16T09:44:37;23.50;55.50
1175;DHT22;576;48.418;10.074;2024-02-16T09:47:06;23.50;55.40
1175;DHT22;576;48.418;10.074;2024-02-16T09:49:37;23.60;55.40
1175;DHT22;576;48.418;10.074;2024-02-16T09:52:10;23.60;55.40
1175;DHT22;576;48.418;10.074;2024-02-16T09:54:39;23.60;55.40
1175;DHT22;576;48.418;10.074;2024-02-16T09:57:08;23.60;55.40
1175;DHT22;576;48.418;10.074;2024-02-16T09:59:37;23.70;55.40
1175;DHT22;576;48.418;10.074;2024-02-16T10:02:05;23.70;55.40
1175;DHT22;576;48.418;10.074;2024-02-16T10:04:34;23.70;55.40
1175;DHT22;576;48.418;10.074;2024-02-16T10:07:04;23.70;55.50
1175;DHT22;576;48.418;10.074;2024-02-16T10:09:40;23.70;55.50
1175;DHT22;576;48.418;10.074;2024-02-16T10:12:09;23.60;55.50
1175;DHT22;576;48.418;10.074;2024-02-16T10:14:38;23.60;55.60
1175;DHT22;576;48.418;10.074;2024-02-16T10:17:08;23.60;55.70
1175;DHT22;576;48.418;10.074;2024-02-16T10:19:37;23.60;55.60
1175;DHT22;576;48.418;10.074;2024-02-16T10:22:09;23.70;55.50
1175;DHT22;576;48.418;10.074;2024-02-16T10:24:39;23.60;55.20
1175;DHT22;576;48.418;10.074;2024-02-16T10:27:14;23.60;55.30
1175;DHT22;576;48.418;10.074;2024-02-16T10:29:44;23.60;55.20
1175;DHT22;576;48.418;10.074;2024-02-16T10:32:17;23.60;55.10
1175;DHT22;576;48.418;10.074;2024-02-16T10:34:46;23.60;55.20
1175;DHT22;576;48.418;10.074;2024-02-16T10:37:16;23.70;55.20
1175;DHT22;576;48.418;10.074;2024-02-16T10:39:46;23.70;55.10
1175;DHT22;576;48.418;10.074;2024-02-16T10:42:17;23.70;55.10
1175;DHT22;576;48.418;10.074;2024-02-16T10:44:47;23.70;55.00
1175;DHT22;576;48.418;10.074;2024-02-16T10:47:15;23.70;55.00
1175;DHT22;576;48.418;10.074;2024-02-16T10:49:44;23.80;54.90
1175;DHT22;576;48.418;10.074;2024-02-16T10:52:14;23.80;54.90
1175;DHT22;576;48.418;10.074;2024-02-16T10:54:44;23.90;54.90
1175;DHT22;576;48.418;10.074;2024-02-16T10:57:13;23.90;54.90
1175;DHT22;576;48.418;10.074;2024-02-16T10:59:44;23.90;54.90
1175;DHT22;576;48.418;10.074;2024-02-16T11:02:15;24.10;54.70
1175;DHT22;576;48.418;10.074;2024-02-16T11:04:46;24.20;54.50
1175;DHT22;576;48.418;10.074;2024-02-16T11:07:17;24.30;54.20
1175;DHT22;576;48.418;10.074;2024-02-16T11:09:46;24.30;54.00
1175;DHT22;576;48.418;10.074;2024-02-16T11:12:17;24.30;54.10
1175;DHT22;576;48.418;10.074;2024-02-16T11:14:46;24.40;53.90
1175;DHT22;576;48.418;10.074;2024-02-16T11:17:16;24.40;53.70
1175;DHT22;576;48.418;10.074;2024-02-16T11:19:48;24.50;53.80
1175;DHT22;576;48.418;10.074;2024-02-16T11:22:18;24.70;53.60
1175;DHT22;576;48.418;10.074;2024-02-16T11:24:49;24.90;53.30
1175;DHT22;576;48.418;10.074;2024-02-16T11:27:19;25.10;53.10
1175;DHT22;576;48.418;10.074;2024-02-16T11:29:49;25.10;52.90
1175;DHT22;576;48.418;10.074;2024-02-16T11:32:18;25.20;53.40
1175;DHT22;576;48.418;10.074;2024-02-16T11:34:47;25.20;53.20
1175;DHT22;576;48.418;10.074;2024-02-16T11:37:16;25.20;53.60
1175;DHT22;576;48.418;10.074;2024-02-16T11:39:45;25.10;54.00
1175;DHT22;576;48.418;10.074;2024-02-16T11:42:20;25.10;54.20
1175;DHT22;576;48.418;10.074;2024-02-16T11:44:52;25.00;54.80
1175;DHT22;576;48.418;10.074;2024-02-16T11:47:24;24.90;55.20
1175;DHT22;576;48.418;10.074;2024-02-16T11:50:03;24.90;56.00
1175;DHT22;576;48.418;10.074;2024-02-16T11:52:33;24.90;56.40
1175;DHT22;576;48.418;10.074;2024-02-16T11:55:02;25.00;56.50
1175;DHT22;576;48.418;10.074;2024-02-16T11:57:33;25.00;56.30
1175;DHT22;576;48.418;10.074;2024-02-16T12:00:03;25.00;56.60
1175;DHT22;576;48.418;10.074;2024-02-16T12:02:35;25.00;56.90
1175;DHT22;576;48.418;10.074;2024-02-16T12:05:04;25.00;57.10
1175;DHT22;576;48.418;10.074;2024-02-16T12:07:36;25.10;56.60
1175;DHT22;576;48.418;10.074;2024-02-16T12:10:08;25.10;56.30
1175;DHT22;576;48.418;10.074;2024-02-16T12:12:39;25.20;56.00
1175;DHT22;576;48.418;10.074;2024-02-16T12:15:10;25.20;55.80
1175;DHT22;576;48.418;10.074;2024-02-16T12:17:40;25.20;55.70
1175;DHT22;576;48.418;10.074;2024-02-16T12:20:11;25.30;55.40
1175;DHT22;576;48.418;10.074;2024-02-16T12:22:41;25.30;55.10
1175;DHT22;576;48.418;10.074;2024-02-16T12:25:09;25.30;55.10
1175;DHT22;576;48.418;10.074;2024-02-16T12:27:39;25.30;55.10
1175;DHT22;576;48.418;10.074;2024-02-16T12:30:08;25.30;55.00
1175;DHT22;576;48.418;10.074;2024-02-16T12:32:38;25.20;55.00
1175;DHT22;576;48.418;10.074;2024-02-16T12:35:07;25.10;55.20
1175;DHT22;576;48.418;10.074;2024-02-16T12:37:36;25.00;55.20
1175;DHT22;576;48.418;10.074;2024-02-16T12:40:06;25.00;55.30
1175;DHT22;576;48.418;10.074;2024-02-16T12:42:34;24.80;55.80
1175;DHT22;576;48.418;10.074;2024-02-16T12:45:05;24.70;55.70
1175;DHT22;576;48.418;10.074;2024-02-16T12:47:33;24.60;55.70
1175;DHT22;576;48.418;10.074;2024-02-16T12:50:02;24.60;55.50
1175;DHT22;576;48.418;10.074;2024-02-16T12:52:31;24.40;55.70
1175;DHT22;576;48.418;10.074;2024-02-16T12:55:07;24.40;56.00
1175;DHT22;576;48.418;10.074;2024-02-16T12:57:37;24.30;55.80
1175;DHT22;576;48.418;10.074;2024-02-16T13:00:08;24.30;55.80
1175;DHT22;576;48.418;10.074;2024-02-16T13:02:36;24.20;55.90
1175;DHT22;576;48.418;10.074;2024-02-16T13:05:05;24.20;56.00
1175;DHT22;576;48.418;10.074;2024-02-16T13:07:33;24.20;56.20
1175;DHT22;576;48.418;10.074;2024-02-16T13:10:02;24.20;56.40
1175;DHT22;576;48.418;10.074;2024-02-16T13:12:30;24.10;56.70
1175;DHT22;576;48.418;10.074;2024-02-16T13:14:59;24.10;57.20
1175;DHT22;576;48.418;10.074;2024-02-16T13:17:46;24.10;57.40
1175;DHT22;576;48.418;10.074;2024-02-16T13:20:14;24.10;57.30
1175;DHT22;576;48.418;10.074;2024-02-16T13:22:43;24.10;57.60
1175;DHT22;576;48.418;10.074;2024-02-16T13:25:11;24.20;57.80
1175;DHT22;576;48.418;10.074;2024-02-16T13:27:39;24.20;57.90
1175;DHT22;576;48.418;10.074;2024-02-16T13:30:08;24.20;58.00
1175;DHT22;576;48.418;10.074;2024-02-16T13:32:36;24.20;57.90
1175;DHT22;576;48.418;10.074;2024-02-16T13:35:09;24.20;58.10
1175;DHT22;576;48.418;10.074;2024-02-16T13:37:37;24.30;58.20
1175;DHT22;576;48.418;10.074;2024-02-16T13:40:07;24.30;58.30
1175;DHT22;576;48.418;10.074;2024-02-16T13:42:38;24.40;58.40
1175;DHT22;576;48.418;10.074;2024-02-16T13:45:08;24.40;58.40
1175;DHT22;576;48.418;10.074;2024-02-16T13:47:36;24.40;58.30
1175;DHT22;576;48.418;10.074;2024-02-16T13:50:08;24.40;58.30
1175;DHT22;576;48.418;10.074;2024-02-16T13:52:38;24.40;58.50
1175;DHT22;576;48.418;10.074;2024-02-16T13:55:06;24.40;58.50
1175;DHT22;576;48.418;10.074;2024-02-16T13:57:35;24.40;58.30
1175;DHT22;576;48.418;10.074;2024-02-16T14:00:07;24.40;58.30
1175;DHT22;576;48.418;10.074;2024-02-16T14:02:38;24.40;58.30
1175;DHT22;576;48.418;10.074;2024-02-16T14:05:06;24.40;58.20
1175;DHT22;576;48.418;10.074;2024-02-16T14:07:36;24.40;58.20
1175;DHT22;576;48.418;10.074;2024-02-16T14:10:17;24.50;58.20
1175;DHT22;576;48.418;10.074;2024-02-16T14:12:45;24.50;58.30
1175;DHT22;576;48.418;10.074;2024-02-16T14:15:14;24.50;58.50
1175;DHT22;576;48.418;10.074;2024-02-16T14:17:43;24.50;58.50
1175;DHT22;576;48.418;10.074;2024-02-16T14:20:12;24.50;58.50
1175;DHT22;576;48.418;10.074;2024-02-16T14:22:41;24.60;58.50
1175;DHT22;576;48.418;10.074;2024-02-16T14:25:10;24.50;58.60
1175;DHT22;576;48.418;10.074;2024-02-16T14:27:40;24.50;58.50
1175;DHT22;576;48.418;10.074;2024-02-16T14:30:11;24.60;58.40
1175;DHT22;576;48.418;10.074;2024-02-16T14:32:39;24.50;58.40
1175;DHT22;576;48.418;10.074;2024-02-16T14:35:08;24.50;58.50
1175;DHT22;576;48.418;10.074;2024-02-16T14:37:38;24.50;58.50
1175;DHT22;576;48.418;10.074;2024-02-16T14:40:08;24.50;58.50
1175;DHT22;576;48.418;10.074;2024-02-16T14:42:39;24.50;58.50
1175;DHT22;576;48.418;10.074;2024-02-16T14:45:08;24.50;58.50
1175;DHT22;576;48.418;10.074;2024-02-16T14:47:47;24.50;58.50
1175;DHT22;576;48.418;10.074;2024-02-16T14:50:16;24.50;58.60
1175;DHT22;576;48.418;10.074;2024-02-16T14:52:45;24.50;58.70
1175;DHT22;576;48.418;10.074;2024-02-16T14:55:14;24.50;58.60
1175;DHT22;576;48.418;10.074;2024-02-16T14:57:43;24.50;58.60
1175;DHT22;576;48.418;10.074;2024-02-16T15:00:13;24.50;58.60
1175;DHT22;576;48.418;10.074;2024-02-16T15:02:41;24.50;58.60
1175;DHT22;576;48.418;10.074;2024-02-16T15:05:10;24.50;58.60
1175;DHT22;576;48.418;10.074;2024-02-16T15:07:39;24.60;58.50
1175;DHT22;576;48.418;10.074;2024-02-16T15:10:08;24.60;58.60
1175;DHT22;576;48.418;10.074;2024-02-16T15:12:39;24.50;58.60
1175;DHT22;576;48.418;10.074;2024-02-16T15:15:10;24.50;58.70
1175;DHT22;576;48.418;10.074;2024-02-16T15:17:40;24.50;58.80
1175;DHT22;576;48.418;10.074;2024-02-16T15:20:08;24.50;58.70
1175;DHT22;576;48.418;10.074;2024-02-16T15:22:37;24.60;58.60
1175;DHT22;576;48.418;10.074;2024-02-16T15:25:19;24.50;58.60
1175;DHT22;576;48.418;10.074;2024-02-16T15:27:48;24.50;58.00
1175;DHT22;576;48.418;10.074;2024-02-16T15:30:17;24.50;57.30
1175;DHT22;576;48.418;10.074;2024-02-16T15:32:46;24.40;56.90
1175;DHT22;576;48.418;10.074;2024-02-16T15:35:18;24.40;56.70
1175;DHT22;576;48.418;10.074;2024-02-16T15:37:47;24.40;56.90
1175;DHT22;576;48.418;10.074;2024-02-16T15:40:15;24.40;57.20
1175;DHT22;576;48.418;10.074;2024-02-16T15:43:00;24.40;57.30
1175;DHT22;576;48.418;10.074;2024-02-16T15:45:29;24.40;57.50
1175;DHT22;576;48.418;10.074;2024-02-16T15:47:58;24.40;57.50
1175;DHT22;576;48.418;10.074;2024-02-16T15:50:27;24.40;57.80
1175;DHT22;576;48.418;10.074;2024-02-16T15:52:57;24.40;57.70
1175;DHT22;576;48.418;10.074;2024-02-16T15:55:25;24.50;57.90
1175;DHT22;576;48.418;10.074;2024-02-16T15:57:53;24.50;58.00
1175;DHT22;576;48.418;10.074;2024-02-16T16:00:23;24.50;58.10
1175;DHT22;576;48.418;10.074;2024-02-16T16:02:52;24.50;58.20
1175;DHT22;576;48.418;10.074;2024-02-16T16:05:21;24.50;58.50
1175;DHT22;576;48.418;10.074;2024-02-16T16:07:50;24.50;58.40
1175;DHT22;576;48.418;10.074;2024-02-16T16:10:19;24.50;57.90
1175;DHT22;576;48.418;10.074;2024-02-16T16:12:48;24.50;57.00
1175;DHT22;576;48.418;10.074;2024-02-16T16:15:16;24.40;56.70